sensor_id;sensor_type;location;lat;lon;timestamp;P1;durP1;ratioP1;P2;durP2;ratioP2
41059;SDS011;26811;53.160;8.202;2023-07-31T00:02:47;40.28;;;10.18;;
41059;SDS011;26811;53.160;8.202;2023-07-31T00:07:47;27.80;;;9.73;;
41059;SDS011;26811;53.160;8.202;2023-07-31T00:12:48;29.08;;;8.80;;
41059;SDS011;26811;53.160;8.202;2023-07-31T00:17:48;28.63;;;8.75;;
41059;SDS011;26811;53.160;8.202;2023-07-31T00:22:49;20.17;;;7.20;;
41059;SDS011;26811;53.160;8.202;2023-07-31T00:27:49;24.58;;;6.68;;
41059;SDS011;26811;53.160;8.202;2023-07-31T00:32:50;31.48;;;7.10;;
41059;SDS011;26811;53.160;8.202;2023-07-31T00:37:50;24.25;;;6.43;;
41059;SDS011;26811;53.160;8.202;2023-07-31T00:42:51;17.88;;;6.57;;
41059;SDS011;26811;53.160;8.202;2023-07-31T00:47:51;20.70;;;6.20;;
41059;SDS011;26811;53.160;8.202;2023-07-31T00:52:52;24.65;;;6.10;;
41059;SDS011;26811;53.160;8.202;2023-07-31T00:57:52;18.85;;;6.68;;
41059;SDS011;26811;53.160;8.202;2023-07-31T01:08:02;30.30;;;8.05;;
41059;SDS011;26811;53.160;8.202;2023-07-31T01:13:09;25.65;;;8.38;;
41059;SDS011;26811;53.160;8.202;2023-07-31T01:18:10;20.08;;;8.40;;
41059;SDS011;26811;53.160;8.202;2023-07-31T01:23:17;23.50;;;8.13;;
41059;SDS011;26811;53.160;8.202;2023-07-31T01:28:25;24.80;;;7.60;;
41059;SDS011;26811;53.160;8.202;2023-07-31T01:33:30;22.00;;;7.55;;
41059;SDS011;26811;53.160;8.202;2023-07-31T01:38:31;18.42;;;7.78;;
41059;SDS011;26811;53.160;8.202;2023-07-31T01:43:32;24.25;;;7.78;;
41059;SDS011;26811;53.160;8.202;2023-07-31T01:48:32;25.95;;;9.55;;
41059;SDS011;26811;53.160;8.202;2023-07-31T01:53:35;22.20;;;9.38;;
41059;SDS011;26811;53.160;8.202;2023-07-31T01:58:36;26.48;;;8.98;;
41059;SDS011;26811;53.160;8.202;2023-07-31T02:03:36;23.60;;;8.95;;
41059;SDS011;26811;53.160;8.202;2023-07-31T02:08:37;29.73;;;9.48;;
41059;SDS011;26811;53.160;8.202;2023-07-31T02:13:37;24.60;;;9.25;;
41059;SDS011;26811;53.160;8.202;2023-07-31T02:18:38;23.20;;;9.38;;
41059;SDS011;26811;53.160;8.202;2023-07-31T02:23:38;22.40;;;8.80;;
41059;SDS011;26811;53.160;8.202;2023-07-31T02:28:39;26.00;;;9.27;;
41059;SDS011;26811;53.160;8.202;2023-07-31T02:33:42;29.15;;;9.20;;
41059;SDS011;26811;53.160;8.202;2023-07-31T02:38:43;23.90;;;9.52;;
41059;SDS011;26811;53.160;8.202;2023-07-31T02:43:43;22.38;;;9.27;;
41059;SDS011;26811;53.160;8.202;2023-07-31T02:48:44;26.70;;;10.20;;
41059;SDS011;26811;53.160;8.202;2023-07-31T02:53:45;22.77;;;10.13;;
41059;SDS011;26811;53.160;8.202;2023-07-31T02:58:46;31.02;;;10.40;;
41059;SDS011;26811;53.160;8.202;2023-07-31T03:03:47;31.95;;;11.15;;
41059;SDS011;26811;53.160;8.202;2023-07-31T03:08:47;34.30;;;11.43;;
41059;SDS011;26811;53.160;8.202;2023-07-31T03:13:48;34.55;;;11.10;;
41059;SDS011;26811;53.160;8.202;2023-07-31T03:18:48;37.63;;;11.95;;
41059;SDS011;26811;53.160;8.202;2023-07-31T03:23:49;36.33;;;12.13;;
41059;SDS011;26811;53.160;8.202;2023-07-31T03:28:49;37.13;;;11.77;;
41059;SDS011;26811;53.160;8.202;2023-07-31T03:33:50;34.97;;;12.23;;
41059;SDS011;26811;53.160;8.202;2023-07-31T03:38:51;36.60;;;12.35;;
41059;SDS011;26811;53.160;8.202;2023-07-31T03:43:52;31.83;;;11.77;;
41059;SDS011;26811;53.160;8.202;2023-07-31T03:48:52;32.80;;;12.00;;
41059;SDS011;26811;53.160;8.202;2023-07-31T03:53:53;36.38;;;11.52;;
41059;SDS011;26811;53.160;8.202;2023-07-31T03:58:53;30.17;;;11.35;;
41059;SDS011;26811;53.160;8.202;2023-07-31T04:03:54;33.05;;;11.25;;
41059;SDS011;26811;53.160;8.202;2023-07-31T04:08:54;36.42;;;11.02;;
41059;SDS011;26811;53.160;8.202;2023-07-31T04:13:55;35.45;;;11.43;;
41059;SDS011;26811;53.160;8.202;2023-07-31T04:18:55;29.45;;;10.63;;
41059;SDS011;26811;53.160;8.202;2023-07-31T04:23:56;27.80;;;9.98;;
41059;SDS011;26811;53.160;8.202;2023-07-31T04:28:59;24.90;;;9.25;;
41059;SDS011;26811;53.160;8.202;2023-07-31T04:34:00;25.15;;;8.70;;
41059;SDS011;26811;53.160;8.202;2023-07-31T04:39:00;24.45;;;8.20;;
41059;SDS011;26811;53.160;8.202;2023-07-31T04:44:01;21.40;;;8.13;;
41059;SDS011;26811;53.160;8.202;2023-07-31T04:49:03;20.50;;;8.23;;
41059;SDS011;26811;53.160;8.202;2023-07-31T04:54:04;14.98;;;6.78;;
41059;SDS011;26811;53.160;8.202;2023-07-31T04:59:04;18.25;;;6.45;;
41059;SDS011;26811;53.160;8.202;2023-07-31T05:04:05;15.18;;;5.95;;
41059;SDS011;26811;53.160;8.202;2023-07-31T05:09:05;26.35;;;6.10;;
41059;SDS011;26811;53.160;8.202;2023-07-31T05:14:06;11.00;;;4.80;;
41059;SDS011;26811;53.160;8.202;2023-07-31T05:19:07;14.18;;;5.40;;
41059;SDS011;26811;53.160;8.202;2023-07-31T05:24:08;17.58;;;5.30;;
41059;SDS011;26811;53.160;8.202;2023-07-31T05:29:08;17.48;;;5.30;;
41059;SDS011;26811;53.160;8.202;2023-07-31T05:34:09;19.20;;;5.05;;
41059;SDS011;26811;53.160;8.202;2023-07-31T05:39:09;14.98;;;5.28;;
41059;SDS011;26811;53.160;8.202;2023-07-31T05:44:10;16.33;;;5.45;;
41059;SDS011;26811;53.160;8.202;2023-07-31T05:49:10;16.80;;;6.10;;
41059;SDS011;26811;53.160;8.202;2023-07-31T05:54:11;12.60;;;4.90;;
41059;SDS011;26811;53.160;8.202;2023-07-31T05:59:12;12.85;;;4.55;;
41059;SDS011;26811;53.160;8.202;2023-07-31T06:04:13;16.73;;;5.32;;
41059;SDS011;26811;53.160;8.202;2023-07-31T06:09:13;12.38;;;4.28;;
41059;SDS011;26811;53.160;8.202;2023-07-31T06:14:14;10.35;;;3.67;;
41059;SDS011;26811;53.160;8.202;2023-07-31T06:19:17;12.00;;;3.88;;
41059;SDS011;26811;53.160;8.202;2023-07-31T06:24:18;6.25;;;3.30;;
41059;SDS011;26811;53.160;8.202;2023-07-31T06:29:20;10.33;;;3.63;;
41059;SDS011;26811;53.160;8.202;2023-07-31T06:34:21;12.00;;;3.45;;
41059;SDS011;26811;53.160;8.202;2023-07-31T06:39:21;12.02;;;3.13;;
41059;SDS011;26811;53.160;8.202;2023-07-31T06:44:22;11.65;;;3.42;;
41059;SDS011;26811;53.160;8.202;2023-07-31T06:49:22;7.97;;;3.45;;
41059;SDS011;26811;53.160;8.202;2023-07-31T06:54:23;7.88;;;3.70;;
41059;SDS011;26811;53.160;8.202;2023-07-31T06:59:23;10.38;;;3.70;;
41059;SDS011;26811;53.160;8.202;2023-07-31T07:04:24;18.20;;;3.97;;
41059;SDS011;26811;53.160;8.202;2023-07-31T07:09:24;10.40;;;2.80;;
41059;SDS011;26811;53.160;8.202;2023-07-31T07:14:25;34.85;;;4.22;;
41059;SDS011;26811;53.160;8.202;2023-07-31T07:19:25;15.35;;;3.45;;
41059;SDS011;26811;53.160;8.202;2023-07-31T07:24:26;8.90;;;3.13;;
41059;SDS011;26811;53.160;8.202;2023-07-31T07:29:26;12.27;;;4.82;;
41059;SDS011;26811;53.160;8.202;2023-07-31T07:34:27;34.25;;;8.50;;
41059;SDS011;26811;53.160;8.202;2023-07-31T07:39:28;52.53;;;11.95;;
41059;SDS011;26811;53.160;8.202;2023-07-31T07:44:28;73.45;;;14.77;;
41059;SDS011;26811;53.160;8.202;2023-07-31T07:49:29;91.85;;;17.67;;
41059;SDS011;26811;53.160;8.202;2023-07-31T07:54:30;109.95;;;19.92;;
41059;SDS011;26811;53.160;8.202;2023-07-31T07:59:30;107.38;;;20.17;;
41059;SDS011;26811;53.160;8.202;2023-07-31T08:04:31;101.75;;;19.90;;
41059;SDS011;26811;53.160;8.202;2023-07-31T08:09:31;119.20;;;21.42;;
41059;SDS011;26811;53.160;8.202;2023-07-31T08:14:32;123.40;;;22.20;;
41059;SDS011;26811;53.160;8.202;2023-07-31T08:19:33;118.40;;;24.55;;
41059;SDS011;26811;53.160;8.202;2023-07-31T08:24:33;121.20;;;24.60;;
41059;SDS011;26811;53.160;8.202;2023-07-31T08:29:34;126.47;;;23.52;;
41059;SDS011;26811;53.160;8.202;2023-07-31T08:34:34;123.25;;;24.05;;
41059;SDS011;26811;53.160;8.202;2023-07-31T08:39:35;132.10;;;24.15;;
41059;SDS011;26811;53.160;8.202;2023-07-31T08:44:39;134.10;;;25.25;;
41059;SDS011;26811;53.160;8.202;2023-07-31T08:49:40;111.45;;;23.63;;
41059;SDS011;26811;53.160;8.202;2023-07-31T08:54:43;97.18;;;21.58;;
41059;SDS011;26811;53.160;8.202;2023-07-31T08:59:44;77.50;;;19.10;;
41059;SDS011;26811;53.160;8.202;2023-07-31T09:04:45;73.85;;;17.17;;
41059;SDS011;26811;53.160;8.202;2023-07-31T09:09:46;64.63;;;18.65;;
41059;SDS011;26811;53.160;8.202;2023-07-31T09:14:46;71.07;;;17.15;;
41059;SDS011;26811;53.160;8.202;2023-07-31T09:19:47;69.15;;;18.10;;
41059;SDS011;26811;53.160;8.202;2023-07-31T09:24:48;69.05;;;18.17;;
41059;SDS011;26811;53.160;8.202;2023-07-31T09:29:58;66.55;;;17.75;;
41059;SDS011;26811;53.160;8.202;2023-07-31T09:34:59;79.30;;;19.67;;
41059;SDS011;26811;53.160;8.202;2023-07-31T09:40:00;62.53;;;19.25;;
41059;SDS011;26811;53.160;8.202;2023-07-31T09:45:07;68.90;;;19.73;;
41059;SDS011;26811;53.160;8.202;2023-07-31T09:50:11;56.03;;;16.30;;
41059;SDS011;26811;53.160;8.202;2023-07-31T09:55:11;52.65;;;14.98;;
41059;SDS011;26811;53.160;8.202;2023-07-31T10:00:12;40.53;;;12.90;;
41059;SDS011;26811;53.160;8.202;2023-07-31T10:10:16;35.25;;;11.15;;
41059;SDS011;26811;53.160;8.202;2023-07-31T10:15:18;27.42;;;9.98;;
41059;SDS011;26811;53.160;8.202;2023-07-31T10:20:19;32.63;;;10.05;;
41059;SDS011;26811;53.160;8.202;2023-07-31T10:25:21;27.08;;;9.93;;
41059;SDS011;26811;53.160;8.202;2023-07-31T10:30:24;23.23;;;9.85;;
41059;SDS011;26811;53.160;8.202;2023-07-31T10:35:27;30.05;;;9.70;;
41059;SDS011;26811;53.160;8.202;2023-07-31T10:40:28;22.65;;;8.45;;
41059;SDS011;26811;53.160;8.202;2023-07-31T10:45:32;24.73;;;9.38;;
41059;SDS011;26811;53.160;8.202;2023-07-31T10:50:37;16.05;;;7.82;;
41059;SDS011;26811;53.160;8.202;2023-07-31T10:55:42;15.32;;;7.53;;
41059;SDS011;26811;53.160;8.202;2023-07-31T11:00:47;16.25;;;7.50;;
41059;SDS011;26811;53.160;8.202;2023-07-31T11:10:51;11.98;;;6.60;;
41059;SDS011;26811;53.160;8.202;2023-07-31T11:16:06;9.80;;;5.30;;
41059;SDS011;26811;53.160;8.202;2023-07-31T11:21:07;11.48;;;5.63;;
41059;SDS011;26811;53.160;8.202;2023-07-31T11:26:15;8.38;;;5.53;;
41059;SDS011;26811;53.160;8.202;2023-07-31T11:31:17;10.07;;;6.57;;
41059;SDS011;26811;53.160;8.202;2023-07-31T11:36:18;10.23;;;6.10;;
41059;SDS011;26811;53.160;8.202;2023-07-31T11:41:20;9.93;;;5.28;;
41059;SDS011;26811;53.160;8.202;2023-07-31T11:46:20;10.25;;;6.13;;
41059;SDS011;26811;53.160;8.202;2023-07-31T11:51:22;13.23;;;5.78;;
41059;SDS011;26811;53.160;8.202;2023-07-31T11:56:22;12.20;;;6.00;;
41059;SDS011;26811;53.160;8.202;2023-07-31T12:01:24;9.68;;;5.80;;
41059;SDS011;26811;53.160;8.202;2023-07-31T12:06:35;9.23;;;5.60;;
41059;SDS011;26811;53.160;8.202;2023-07-31T12:11:43;9.38;;;5.80;;
41059;SDS011;26811;53.160;8.202;2023-07-31T12:16:45;7.75;;;5.13;;
41059;SDS011;26811;53.160;8.202;2023-07-31T12:21:45;8.55;;;5.25;;
41059;SDS011;26811;53.160;8.202;2023-07-31T12:26:46;7.53;;;5.45;;
41059;SDS011;26811;53.160;8.202;2023-07-31T12:31:47;12.20;;;5.80;;
41059;SDS011;26811;53.160;8.202;2023-07-31T12:36:47;7.57;;;5.82;;
41059;SDS011;26811;53.160;8.202;2023-07-31T12:41:51;9.93;;;6.38;;
41059;SDS011;26811;53.160;8.202;2023-07-31T12:46:51;8.88;;;5.63;;
41059;SDS011;26811;53.160;8.202;2023-07-31T12:51:52;7.85;;;4.88;;
41059;SDS011;26811;53.160;8.202;2023-07-31T12:56:54;10.02;;;5.25;;
41059;SDS011;26811;53.160;8.202;2023-07-31T13:01:54;9.13;;;5.05;;
41059;SDS011;26811;53.160;8.202;2023-07-31T13:06:54;10.50;;;5.47;;
41059;SDS011;26811;53.160;8.202;2023-07-31T13:11:55;7.35;;;5.20;;
41059;SDS011;26811;53.160;8.202;2023-07-31T13:16:56;10.07;;;5.97;;
41059;SDS011;26811;53.160;8.202;2023-07-31T13:21:56;10.73;;;5.68;;
41059;SDS011;26811;53.160;8.202;2023-07-31T13:26:56;10.23;;;5.57;;
41059;SDS011;26811;53.160;8.202;2023-07-31T13:31:57;7.93;;;5.03;;
41059;SDS011;26811;53.160;8.202;2023-07-31T13:36:58;13.82;;;5.50;;
41059;SDS011;26811;53.160;8.202;2023-07-31T13:41:58;14.27;;;6.38;;
41059;SDS011;26811;53.160;8.202;2023-07-31T13:46:59;13.25;;;6.70;;
41059;SDS011;26811;53.160;8.202;2023-07-31T13:52:00;16.33;;;7.18;;
41059;SDS011;26811;53.160;8.202;2023-07-31T13:57:01;17.65;;;7.20;;
41059;SDS011;26811;53.160;8.202;2023-07-31T14:02:02;30.23;;;9.75;;
41059;SDS011;26811;53.160;8.202;2023-07-31T14:07:03;14.27;;;6.82;;
41059;SDS011;26811;53.160;8.202;2023-07-31T14:12:04;15.48;;;6.30;;
41059;SDS011;26811;53.160;8.202;2023-07-31T14:17:05;4.85;;;2.30;;
41059;SDS011;26811;53.160;8.202;2023-07-31T14:22:05;3.83;;;1.83;;
41059;SDS011;26811;53.160;8.202;2023-07-31T14:27:06;2.42;;;1.58;;
41059;SDS011;26811;53.160;8.202;2023-07-31T14:32:07;6.30;;;2.15;;
41059;SDS011;26811;53.160;8.202;2023-07-31T14:37:08;11.23;;;3.90;;
41059;SDS011;26811;53.160;8.202;2023-07-31T14:42:09;16.52;;;4.63;;
41059;SDS011;26811;53.160;8.202;2023-07-31T14:47:09;11.55;;;4.45;;
41059;SDS011;26811;53.160;8.202;2023-07-31T14:52:10;8.68;;;4.68;;
41059;SDS011;26811;53.160;8.202;2023-07-31T14:57:10;12.05;;;4.60;;
41059;SDS011;26811;53.160;8.202;2023-07-31T15:02:11;10.05;;;4.65;;
41059;SDS011;26811;53.160;8.202;2023-07-31T15:07:11;9.23;;;4.40;;
41059;SDS011;26811;53.160;8.202;2023-07-31T15:12:13;7.90;;;4.10;;
41059;SDS011;26811;53.160;8.202;2023-07-31T15:17:14;10.65;;;4.63;;
41059;SDS011;26811;53.160;8.202;2023-07-31T15:22:14;10.68;;;5.65;;
41059;SDS011;26811;53.160;8.202;2023-07-31T15:27:15;19.45;;;7.30;;
41059;SDS011;26811;53.160;8.202;2023-07-31T15:32:16;19.27;;;8.05;;
41059;SDS011;26811;53.160;8.202;2023-07-31T15:37:18;27.77;;;8.88;;
41059;SDS011;26811;53.160;8.202;2023-07-31T15:42:18;41.22;;;12.05;;
41059;SDS011;26811;53.160;8.202;2023-07-31T15:47:19;22.92;;;9.65;;
41059;SDS011;26811;53.160;8.202;2023-07-31T15:52:19;23.13;;;9.73;;
41059;SDS011;26811;53.160;8.202;2023-07-31T15:57:20;19.65;;;10.00;;
41059;SDS011;26811;53.160;8.202;2023-07-31T16:02:20;28.58;;;11.13;;
41059;SDS011;26811;53.160;8.202;2023-07-31T16:07:21;29.10;;;11.93;;
41059;SDS011;26811;53.160;8.202;2023-07-31T16:12:23;28.55;;;12.45;;
41059;SDS011;26811;53.160;8.202;2023-07-31T16:17:24;32.35;;;13.43;;
41059;SDS011;26811;53.160;8.202;2023-07-31T16:22:24;29.83;;;12.88;;
41059;SDS011;26811;53.160;8.202;2023-07-31T16:27:25;30.38;;;12.70;;
41059;SDS011;26811;53.160;8.202;2023-07-31T16:32:26;35.55;;;13.63;;
41059;SDS011;26811;53.160;8.202;2023-07-31T16:37:27;19.83;;;10.65;;
41059;SDS011;26811;53.160;8.202;2023-07-31T16:42:27;26.20;;;10.35;;
41059;SDS011;26811;53.160;8.202;2023-07-31T16:47:28;21.58;;;10.73;;
41059;SDS011;26811;53.160;8.202;2023-07-31T16:52:29;19.33;;;10.50;;
41059;SDS011;26811;53.160;8.202;2023-07-31T16:57:30;25.63;;;10.15;;
41059;SDS011;26811;53.160;8.202;2023-07-31T17:02:30;26.63;;;10.98;;
41059;SDS011;26811;53.160;8.202;2023-07-31T17:07:31;26.38;;;11.80;;
41059;SDS011;26811;53.160;8.202;2023-07-31T17:12:31;36.97;;;12.55;;
41059;SDS011;26811;53.160;8.202;2023-07-31T17:17:35;29.05;;;13.27;;
41059;SDS011;26811;53.160;8.202;2023-07-31T17:22:39;31.15;;;13.10;;
41059;SDS011;26811;53.160;8.202;2023-07-31T17:27:48;33.30;;;14.43;;
41059;SDS011;26811;53.160;8.202;2023-07-31T17:32:49;37.92;;;16.00;;
41059;SDS011;26811;53.160;8.202;2023-07-31T17:37:53;35.38;;;15.55;;
41059;SDS011;26811;53.160;8.202;2023-07-31T17:43:05;34.60;;;17.08;;
41059;SDS011;26811;53.160;8.202;2023-07-31T17:48:12;34.17;;;16.20;;
41059;SDS011;26811;53.160;8.202;2023-07-31T17:53:13;40.83;;;18.67;;
41059;SDS011;26811;53.160;8.202;2023-07-31T17:58:14;57.13;;;22.85;;
41059;SDS011;26811;53.160;8.202;2023-07-31T18:03:15;56.58;;;20.10;;
41059;SDS011;26811;53.160;8.202;2023-07-31T18:08:15;54.75;;;22.05;;
41059;SDS011;26811;53.160;8.202;2023-07-31T18:13:16;49.63;;;19.33;;
41059;SDS011;26811;53.160;8.202;2023-07-31T18:18:17;52.90;;;18.83;;
41059;SDS011;26811;53.160;8.202;2023-07-31T18:23:17;41.90;;;17.45;;
41059;SDS011;26811;53.160;8.202;2023-07-31T18:28:19;44.35;;;15.68;;
41059;SDS011;26811;53.160;8.202;2023-07-31T18:33:20;41.25;;;15.75;;
41059;SDS011;26811;53.160;8.202;2023-07-31T18:38:20;32.50;;;13.73;;
41059;SDS011;26811;53.160;8.202;2023-07-31T18:43:21;29.45;;;11.73;;
41059;SDS011;26811;53.160;8.202;2023-07-31T18:48:21;23.48;;;10.25;;
41059;SDS011;26811;53.160;8.202;2023-07-31T18:53:22;20.15;;;9.45;;
41059;SDS011;26811;53.160;8.202;2023-07-31T18:58:23;24.23;;;8.65;;
41059;SDS011;26811;53.160;8.202;2023-07-31T19:03:24;23.92;;;8.88;;
41059;SDS011;26811;53.160;8.202;2023-07-31T19:08:24;25.75;;;8.93;;
41059;SDS011;26811;53.160;8.202;2023-07-31T19:13:25;22.95;;;8.48;;
41059;SDS011;26811;53.160;8.202;2023-07-31T19:18:29;21.80;;;8.32;;
41059;SDS011;26811;53.160;8.202;2023-07-31T19:23:29;22.40;;;8.57;;
41059;SDS011;26811;53.160;8.202;2023-07-31T19:28:30;22.05;;;8.02;;
41059;SDS011;26811;53.160;8.202;2023-07-31T19:33:30;20.52;;;7.57;;
41059;SDS011;26811;53.160;8.202;2023-07-31T19:38:31;18.20;;;6.72;;
41059;SDS011;26811;53.160;8.202;2023-07-31T19:43:32;15.68;;;5.32;;
41059;SDS011;26811;53.160;8.202;2023-07-31T19:48:32;7.97;;;4.25;;
41059;SDS011;26811;53.160;8.202;2023-07-31T19:53:33;8.88;;;3.95;;
41059;SDS011;26811;53.160;8.202;2023-07-31T19:58:33;9.65;;;3.47;;
41059;SDS011;26811;53.160;8.202;2023-07-31T20:03:34;9.20;;;3.83;;
41059;SDS011;26811;53.160;8.202;2023-07-31T20:08:34;8.23;;;3.60;;
41059;SDS011;26811;53.160;8.202;2023-07-31T20:13:35;8.50;;;4.03;;
41059;SDS011;26811;53.160;8.202;2023-07-31T20:18:36;11.38;;;4.30;;
41059;SDS011;26811;53.160;8.202;2023-07-31T20:23:41;8.55;;;3.90;;
41059;SDS011;26811;53.160;8.202;2023-07-31T20:28:44;9.13;;;4.03;;
41059;SDS011;26811;53.160;8.202;2023-07-31T20:33:46;10.23;;;4.05;;
41059;SDS011;26811;53.160;8.202;2023-07-31T20:38:46;9.35;;;4.25;;
41059;SDS011;26811;53.160;8.202;2023-07-31T20:43:47;9.70;;;3.88;;
41059;SDS011;26811;53.160;8.202;2023-07-31T20:48:47;7.35;;;3.47;;
41059;SDS011;26811;53.160;8.202;2023-07-31T20:53:48;5.13;;;3.13;;
41059;SDS011;26811;53.160;8.202;2023-07-31T20:58:51;8.40;;;2.95;;
41059;SDS011;26811;53.160;8.202;2023-07-31T21:03:52;8.57;;;3.25;;
41059;SDS011;26811;53.160;8.202;2023-07-31T21:08:53;9.07;;;3.42;;
41059;SDS011;26811;53.160;8.202;2023-07-31T21:13:54;5.78;;;3.20;;
41059;SDS011;26811;53.160;8.202;2023-07-31T21:18:55;8.13;;;3.65;;
41059;SDS011;26811;53.160;8.202;2023-07-31T21:23:56;9.55;;;3.10;;
41059;SDS011;26811;53.160;8.202;2023-07-31T21:28:56;9.57;;;3.40;;
41059;SDS011;26811;53.160;8.202;2023-07-31T21:33:57;9.13;;;3.53;;
41059;SDS011;26811;53.160;8.202;2023-07-31T21:38:57;6.63;;;3.47;;
41059;SDS011;26811;53.160;8.202;2023-07-31T21:43:58;12.57;;;3.80;;
41059;SDS011;26811;53.160;8.202;2023-07-31T21:48:59;11.05;;;3.95;;
41059;SDS011;26811;53.160;8.202;2023-07-31T21:53:59;11.93;;;4.55;;
41059;SDS011;26811;53.160;8.202;2023-07-31T21:59:00;13.05;;;4.93;;
41059;SDS011;26811;53.160;8.202;2023-07-31T22:04:01;11.68;;;4.95;;
41059;SDS011;26811;53.160;8.202;2023-07-31T22:09:02;12.65;;;5.20;;
41059;SDS011;26811;53.160;8.202;2023-07-31T22:14:03;15.85;;;6.05;;
41059;SDS011;26811;53.160;8.202;2023-07-31T22:19:04;13.20;;;6.03;;
41059;SDS011;26811;53.160;8.202;2023-07-31T22:24:04;21.17;;;6.03;;
41059;SDS011;26811;53.160;8.202;2023-07-31T22:29:05;15.93;;;6.28;;
41059;SDS011;26811;53.160;8.202;2023-07-31T22:34:05;20.42;;;7.13;;
41059;SDS011;26811;53.160;8.202;2023-07-31T22:39:06;26.65;;;8.02;;
41059;SDS011;26811;53.160;8.202;2023-07-31T22:44:06;17.08;;;8.02;;
41059;SDS011;26811;53.160;8.202;2023-07-31T22:49:07;25.75;;;9.07;;
41059;SDS011;26811;53.160;8.202;2023-07-31T22:54:07;29.55;;;10.30;;
41059;SDS011;26811;53.160;8.202;2023-07-31T22:59:08;30.77;;;10.63;;
41059;SDS011;26811;53.160;8.202;2023-07-31T23:04:08;29.50;;;10.82;;
41059;SDS011;26811;53.160;8.202;2023-07-31T23:09:10;23.88;;;10.85;;
41059;SDS011;26811;53.160;8.202;2023-07-31T23:14:11;30.73;;;12.15;;
41059;SDS011;26811;53.160;8.202;2023-07-31T23:19:11;30.95;;;12.90;;
41059;SDS011;26811;53.160;8.202;2023-07-31T23:24:12;34.95;;;14.02;;
41059;SDS011;26811;53.160;8.202;2023-07-31T23:29:12;48.92;;;15.13;;
41059;SDS011;26811;53.160;8.202;2023-07-31T23:34:13;41.97;;;14.88;;
41059;SDS011;26811;53.160;8.202;2023-07-31T23:39:13;44.13;;;15.57;;
41059;SDS011;26811;53.160;8.202;2023-07-31T23:44:14;48.20;;;17.20;;
41059;SDS011;26811;53.160;8.202;2023-07-31T23:49:15;49.33;;;17.83;;
41059;SDS011;26811;53.160;8.202;2023-07-31T23:54:16;52.05;;;18.20;;
41059;SDS011;26811;53.160;8.202;2023-07-31T23:59:16;52.78;;;17.70;;
